sensor_id;sensor_type;location;lat;lon;timestamp;pressure;altitude;pressure_sealevel;temperature;humidity
55317;BME280;41178;48.956;8.130;2022-07-06T00:01:23;100195.56;;;25.68;37.97
55317;BME280;41178;48.956;8.130;2022-07-06T00:03:25;100194.97;;;25.32;38.52
55317;BME280;41178;48.956;8.130;2022-07-06T00:05:27;100198.59;;;25.49;38.17
55317;BME280;41178;48.956;8.130;2022-07-06T00:07:29;100206.50;;;25.22;38.79
55317;BME280;41178;48.956;8.130;2022-07-06T00:09:32;100202.50;;;25.24;38.47
55317;BME280;41178;48.956;8.130;2022-07-06T00:11:34;100198.59;;;25.20;38.88
55317;BME280;41178;48.956;8.130;2022-07-06T00:13:36;100194.69;;;24.99;38.85
55317;BME280;41178;48.956;8.130;2022-07-06T00:15:37;100194.22;;;25.02;39.12
55317;BME280;41178;48.956;8.130;2022-07-06T00:17:39;100194.69;;;24.99;39.01
55317;BME280;41178;48.956;8.130;2022-07-06T00:19:41;100196.06;;;24.85;39.21
55317;BME280;41178;48.956;8.130;2022-07-06T00:21:42;100195.44;;;24.95;38.83
55317;BME280;41178;48.956;8.130;2022-07-06T00:23:44;100193.53;;;24.55;39.64
55317;BME280;41178;48.956;8.130;2022-07-06T00:25:46;100194.41;;;24.84;39.39
55317;BME280;41178;48.956;8.130;2022-07-06T00:27:49;100200.38;;;24.98;38.98
55317;BME280;41178;48.956;8.130;2022-07-06T00:29:51;100196.84;;;24.97;39.11
55317;BME280;41178;48.956;8.130;2022-07-06T00:31:52;100197.81;;;24.91;39.42
55317;BME280;41178;48.956;8.130;2022-07-06T00:33:54;100202.84;;;24.71;39.64
55317;BME280;41178;48.956;8.130;2022-07-06T00:35:56;100198.81;;;24.09;41.38
55317;BME280;41178;48.956;8.130;2022-07-06T00:37:57;100200.00;;;24.13;41.12
55317;BME280;41178;48.956;8.130;2022-07-06T00:39:59;100200.25;;;24.11;41.48
55317;BME280;41178;48.956;8.130;2022-07-06T00:42:01;100179.31;;;23.53;42.45
55317;BME280;41178;48.956;8.130;2022-07-06T00:44:07;100177.09;;;23.97;41.77
55317;BME280;41178;48.956;8.130;2022-07-06T00:46:09;100176.16;;;23.56;42.12
55317;BME280;41178;48.956;8.130;2022-07-06T00:48:11;100164.69;;;23.42;42.75
55317;BME280;41178;48.956;8.130;2022-07-06T00:50:15;100159.00;;;24.15;41.55
55317;BME280;41178;48.956;8.130;2022-07-06T00:52:19;100181.84;;;24.54;41.38
55317;BME280;41178;48.956;8.130;2022-07-06T00:54:21;100185.38;;;24.55;41.41
55317;BME280;41178;48.956;8.130;2022-07-06T00:56:23;100183.53;;;24.43;41.69
55317;BME280;41178;48.956;8.130;2022-07-06T00:58:26;100183.81;;;24.71;40.66
55317;BME280;41178;48.956;8.130;2022-07-06T01:00:28;100197.06;;;23.55;43.15
55317;BME280;41178;48.956;8.130;2022-07-06T01:02:34;100177.06;;;23.50;43.03
55317;BME280;41178;48.956;8.130;2022-07-06T01:04:39;100177.03;;;23.26;43.05
55317;BME280;41178;48.956;8.130;2022-07-06T01:06:41;100165.56;;;23.66;42.55
55317;BME280;41178;48.956;8.130;2022-07-06T01:08:42;100187.72;;;24.10;42.23
55317;BME280;41178;48.956;8.130;2022-07-06T01:10:44;100182.41;;;23.68;43.25
55317;BME280;41178;48.956;8.130;2022-07-06T01:12:46;100172.59;;;24.15;42.78
55317;BME280;41178;48.956;8.130;2022-07-06T01:14:49;100177.34;;;23.60;43.91
55317;BME280;41178;48.956;8.130;2022-07-06T01:16:51;100167.31;;;23.96;43.19
55317;BME280;41178;48.956;8.130;2022-07-06T01:18:53;100183.13;;;24.11;42.25
55317;BME280;41178;48.956;8.130;2022-07-06T01:21:11;100177.94;;;25.36;39.93
55317;BME280;41178;48.956;8.130;2022-07-06T01:23:13;100196.03;;;25.14;40.17
55317;BME280;41178;48.956;8.130;2022-07-06T01:25:15;100192.44;;;24.79;40.17
55317;BME280;41178;48.956;8.130;2022-07-06T01:27:17;100200.47;;;24.10;41.30
55317;BME280;41178;48.956;8.130;2022-07-06T01:29:19;100201.75;;;24.31;40.31
55317;BME280;41178;48.956;8.130;2022-07-06T01:31:23;100194.94;;;23.57;42.81
55317;BME280;41178;48.956;8.130;2022-07-06T01:33:25;100197.28;;;22.81;43.68
55317;BME280;41178;48.956;8.130;2022-07-06T01:35:29;100176.22;;;22.65;44.01
55317;BME280;41178;48.956;8.130;2022-07-06T01:37:31;100171.31;;;23.04;43.39
55317;BME280;41178;48.956;8.130;2022-07-06T01:39:33;100171.75;;;23.43;43.36
55317;BME280;41178;48.956;8.130;2022-07-06T01:41:35;100175.28;;;23.32;43.83
55317;BME280;41178;48.956;8.130;2022-07-06T01:43:36;100179.63;;;23.21;44.35
55317;BME280;41178;48.956;8.130;2022-07-06T01:45:38;100175.50;;;22.21;46.29
55317;BME280;41178;48.956;8.130;2022-07-06T01:47:40;100167.97;;;22.04;46.56
55317;BME280;41178;48.956;8.130;2022-07-06T01:49:42;100162.41;;;21.99;46.86
55317;BME280;41178;48.956;8.130;2022-07-06T01:51:43;100145.28;;;22.42;45.80
55317;BME280;41178;48.956;8.130;2022-07-06T01:53:45;100161.84;;;22.64;45.14
55317;BME280;41178;48.956;8.130;2022-07-06T01:55:47;100166.59;;;22.51;45.93
55317;BME280;41178;48.956;8.130;2022-07-06T01:57:49;100172.75;;;22.76;45.19
55317;BME280;41178;48.956;8.130;2022-07-06T01:59:50;100173.78;;;22.94;44.75
55317;BME280;41178;48.956;8.130;2022-07-06T02:01:52;100176.91;;;22.60;45.56
55317;BME280;41178;48.956;8.130;2022-07-06T02:03:53;100190.75;;;21.97;46.86
55317;BME280;41178;48.956;8.130;2022-07-06T02:05:55;100179.94;;;21.97;46.84
55317;BME280;41178;48.956;8.130;2022-07-06T02:07:57;100166.78;;;22.19;46.26
55317;BME280;41178;48.956;8.130;2022-07-06T02:09:58;100177.38;;;22.20;46.41
55317;BME280;41178;48.956;8.130;2022-07-06T02:12:00;100167.28;;;22.09;46.60
55317;BME280;41178;48.956;8.130;2022-07-06T02:14:02;100158.75;;;22.31;46.12
55317;BME280;41178;48.956;8.130;2022-07-06T02:16:04;100168.78;;;23.21;44.43
55317;BME280;41178;48.956;8.130;2022-07-06T02:18:06;100191.31;;;22.91;44.23
55317;BME280;41178;48.956;8.130;2022-07-06T02:20:09;100185.28;;;22.89;44.83
55317;BME280;41178;48.956;8.130;2022-07-06T02:22:10;100199.72;;;22.16;46.11
55317;BME280;41178;48.956;8.130;2022-07-06T02:24:12;100199.28;;;22.56;45.37
55317;BME280;41178;48.956;8.130;2022-07-06T02:26:14;100178.44;;;22.19;46.25
55317;BME280;41178;48.956;8.130;2022-07-06T02:28:15;100180.66;;;23.08;44.30
55317;BME280;41178;48.956;8.130;2022-07-06T02:30:17;100196.41;;;22.51;45.87
55317;BME280;41178;48.956;8.130;2022-07-06T02:32:19;100183.66;;;22.39;45.70
55317;BME280;41178;48.956;8.130;2022-07-06T02:34:20;100207.63;;;21.73;47.04
55317;BME280;41178;48.956;8.130;2022-07-06T02:36:22;100189.91;;;21.96;47.18
55317;BME280;41178;48.956;8.130;2022-07-06T02:38:24;100187.88;;;22.10;46.20
55317;BME280;41178;48.956;8.130;2022-07-06T02:40:26;100195.44;;;21.58;47.76
55317;BME280;41178;48.956;8.130;2022-07-06T02:42:28;100184.47;;;21.78;46.84
55317;BME280;41178;48.956;8.130;2022-07-06T02:44:30;100197.56;;;21.81;46.88
55317;BME280;41178;48.956;8.130;2022-07-06T02:46:31;100202.13;;;21.30;48.13
55317;BME280;41178;48.956;8.130;2022-07-06T02:48:33;100204.16;;;21.66;46.91
55317;BME280;41178;48.956;8.130;2022-07-06T02:50:35;100193.69;;;21.45;47.82
55317;BME280;41178;48.956;8.130;2022-07-06T02:52:36;100183.56;;;21.65;47.13
55317;BME280;41178;48.956;8.130;2022-07-06T02:54:41;100192.97;;;21.81;46.91
55317;BME280;41178;48.956;8.130;2022-07-06T02:56:43;100209.78;;;22.64;45.26
55317;BME280;41178;48.956;8.130;2022-07-06T02:58:46;100204.66;;;22.44;45.53
55317;BME280;41178;48.956;8.130;2022-07-06T03:00:47;100231.34;;;22.59;44.82
55317;BME280;41178;48.956;8.130;2022-07-06T03:02:49;100219.38;;;22.48;45.65
55317;BME280;41178;48.956;8.130;2022-07-06T03:04:51;100227.91;;;22.82;44.49
55317;BME280;41178;48.956;8.130;2022-07-06T03:06:52;100242.56;;;22.62;44.80
55317;BME280;41178;48.956;8.130;2022-07-06T03:08:54;100249.22;;;22.23;45.54
55317;BME280;41178;48.956;8.130;2022-07-06T03:10:56;100244.78;;;21.60;47.32
55317;BME280;41178;48.956;8.130;2022-07-06T03:12:57;100231.13;;;21.48;47.45
55317;BME280;41178;48.956;8.130;2022-07-06T03:14:59;100248.84;;;22.19;46.16
55317;BME280;41178;48.956;8.130;2022-07-06T03:17:01;100253.25;;;21.95;46.20
55317;BME280;41178;48.956;8.130;2022-07-06T03:19:02;100247.19;;;21.43;47.36
55317;BME280;41178;48.956;8.130;2022-07-06T03:21:04;100248.75;;;21.57;46.69
55317;BME280;41178;48.956;8.130;2022-07-06T03:23:06;100256.16;;;21.36;46.89
55317;BME280;41178;48.956;8.130;2022-07-06T03:25:08;100243.63;;;21.99;45.51
55317;BME280;41178;48.956;8.130;2022-07-06T03:27:10;100250.53;;;22.39;44.79
55317;BME280;41178;48.956;8.130;2022-07-06T03:29:11;100251.91;;;21.79;46.37
55317;BME280;41178;48.956;8.130;2022-07-06T03:31:13;100262.38;;;21.76;46.18
55317;BME280;41178;48.956;8.130;2022-07-06T03:33:15;100260.31;;;21.96;46.02
55317;BME280;41178;48.956;8.130;2022-07-06T03:35:16;100267.34;;;22.48;44.78
55317;BME280;41178;48.956;8.130;2022-07-06T03:37:18;100264.56;;;22.73;44.21
55317;BME280;41178;48.956;8.130;2022-07-06T03:39:20;100271.06;;;22.83;44.06
55317;BME280;41178;48.956;8.130;2022-07-06T03:41:21;100268.38;;;22.83;43.92
55317;BME280;41178;48.956;8.130;2022-07-06T03:43:23;100285.97;;;21.62;46.53
55317;BME280;41178;48.956;8.130;2022-07-06T03:45:24;100281.31;;;21.05;48.07
55317;BME280;41178;48.956;8.130;2022-07-06T03:47:26;100267.13;;;21.10;47.87
55317;BME280;41178;48.956;8.130;2022-07-06T03:49:28;100264.91;;;20.93;48.14
55317;BME280;41178;48.956;8.130;2022-07-06T03:51:30;100262.06;;;21.27;47.49
55317;BME280;41178;48.956;8.130;2022-07-06T03:53:31;100246.59;;;21.34;47.45
55317;BME280;41178;48.956;8.130;2022-07-06T03:55:33;100266.38;;;20.89;48.51
55317;BME280;41178;48.956;8.130;2022-07-06T03:57:35;100263.72;;;21.28;47.18
55317;BME280;41178;48.956;8.130;2022-07-06T03:59:36;100260.84;;;21.54;46.63
55317;BME280;41178;48.956;8.130;2022-07-06T04:01:38;100252.91;;;21.85;46.08
55317;BME280;41178;48.956;8.130;2022-07-06T04:03:40;100274.41;;;21.48;46.57
55317;BME280;41178;48.956;8.130;2022-07-06T04:05:42;100259.63;;;22.26;45.34
55317;BME280;41178;48.956;8.130;2022-07-06T04:07:43;100270.41;;;22.33;45.09
55317;BME280;41178;48.956;8.130;2022-07-06T04:09:45;100289.28;;;21.96;45.80
55317;BME280;41178;48.956;8.130;2022-07-06T04:11:46;100283.25;;;21.94;46.31
55317;BME280;41178;48.956;8.130;2022-07-06T04:13:48;100281.75;;;21.72;46.23
55317;BME280;41178;48.956;8.130;2022-07-06T04:15:50;100291.00;;;21.90;45.88
55317;BME280;41178;48.956;8.130;2022-07-06T04:17:51;100308.66;;;20.77;47.67
55317;BME280;41178;48.956;8.130;2022-07-06T04:19:53;100282.03;;;21.26;47.44
55317;BME280;41178;48.956;8.130;2022-07-06T04:21:55;100280.97;;;21.65;46.17
55317;BME280;41178;48.956;8.130;2022-07-06T04:23:56;100295.28;;;20.95;47.24
55317;BME280;41178;48.956;8.130;2022-07-06T04:25:58;100290.03;;;20.42;48.38
55317;BME280;41178;48.956;8.130;2022-07-06T04:28:00;100284.78;;;20.67;48.85
55317;BME280;41178;48.956;8.130;2022-07-06T04:30:03;100275.72;;;20.93;48.68
55317;BME280;41178;48.956;8.130;2022-07-06T04:32:05;100286.19;;;20.70;48.48
55317;BME280;41178;48.956;8.130;2022-07-06T04:34:07;100274.69;;;21.01;48.49
55317;BME280;41178;48.956;8.130;2022-07-06T04:36:09;100285.81;;;20.66;49.37
55317;BME280;41178;48.956;8.130;2022-07-06T04:38:11;100286.03;;;20.58;49.46
55317;BME280;41178;48.956;8.130;2022-07-06T04:40:14;100271.03;;;21.21;48.46
55317;BME280;41178;48.956;8.130;2022-07-06T04:42:19;100286.44;;;21.84;46.60
55317;BME280;41178;48.956;8.130;2022-07-06T04:44:21;100311.13;;;21.30;47.88
55317;BME280;41178;48.956;8.130;2022-07-06T04:46:22;100302.50;;;21.47;48.16
55317;BME280;41178;48.956;8.130;2022-07-06T04:48:24;100311.06;;;21.44;47.54
55317;BME280;41178;48.956;8.130;2022-07-06T04:50:27;100296.72;;;22.25;46.14
55317;BME280;41178;48.956;8.130;2022-07-06T04:52:28;100318.66;;;22.42;45.79
55317;BME280;41178;48.956;8.130;2022-07-06T04:54:30;100316.22;;;22.09;46.90
55317;BME280;41178;48.956;8.130;2022-07-06T04:56:32;100309.09;;;21.89;47.44
55317;BME280;41178;48.956;8.130;2022-07-06T04:58:33;100321.78;;;21.57;48.65
55317;BME280;41178;48.956;8.130;2022-07-06T05:00:35;100319.91;;;21.19;50.19
55317;BME280;41178;48.956;8.130;2022-07-06T05:02:37;100300.16;;;21.89;48.65
55317;BME280;41178;48.956;8.130;2022-07-06T05:04:39;100302.94;;;22.51;46.37
55317;BME280;41178;48.956;8.130;2022-07-06T05:06:40;100317.72;;;22.05;47.65
55317;BME280;41178;48.956;8.130;2022-07-06T05:08:42;100311.56;;;22.16;47.87
55317;BME280;41178;48.956;8.130;2022-07-06T05:10:43;100307.97;;;22.48;47.50
55317;BME280;41178;48.956;8.130;2022-07-06T05:12:45;100319.50;;;22.61;47.42
55317;BME280;41178;48.956;8.130;2022-07-06T05:14:47;100320.38;;;22.55;47.29
55317;BME280;41178;48.956;8.130;2022-07-06T05:16:48;100326.06;;;23.09;45.92
55317;BME280;41178;48.956;8.130;2022-07-06T05:18:50;100332.75;;;22.88;46.30
55317;BME280;41178;48.956;8.130;2022-07-06T05:20:52;100324.47;;;23.20;45.74
55317;BME280;41178;48.956;8.130;2022-07-06T05:22:53;100338.97;;;22.95;45.61
55317;BME280;41178;48.956;8.130;2022-07-06T05:24:55;100340.34;;;23.16;45.55
55317;BME280;41178;48.956;8.130;2022-07-06T05:26:57;100343.69;;;23.00;46.01
55317;BME280;41178;48.956;8.130;2022-07-06T05:28:58;100344.75;;;22.99;45.80
55317;BME280;41178;48.956;8.130;2022-07-06T05:31:00;100333.69;;;23.00;45.32
55317;BME280;41178;48.956;8.130;2022-07-06T05:33:02;100340.75;;;23.50;44.53
55317;BME280;41178;48.956;8.130;2022-07-06T05:35:04;100351.44;;;23.33;44.56
55317;BME280;41178;48.956;8.130;2022-07-06T05:37:26;100353.31;;;23.14;44.38
55317;BME280;41178;48.956;8.130;2022-07-06T05:39:27;100351.13;;;23.23;44.18
55317;BME280;41178;48.956;8.130;2022-07-06T05:41:29;100356.78;;;22.84;44.61
55317;BME280;41178;48.956;8.130;2022-07-06T05:43:32;100364.00;;;22.91;44.29
55317;BME280;41178;48.956;8.130;2022-07-06T05:45:33;100362.66;;;22.63;44.73
55317;BME280;41178;48.956;8.130;2022-07-06T05:47:35;100358.75;;;23.45;43.51
55317;BME280;41178;48.956;8.130;2022-07-06T05:49:55;100368.38;;;22.92;43.89
55317;BME280;41178;48.956;8.130;2022-07-06T05:52:15;100355.22;;;23.44;43.18
55317;BME280;41178;48.956;8.130;2022-07-06T05:54:17;100362.44;;;23.20;43.37
55317;BME280;41178;48.956;8.130;2022-07-06T05:56:19;100360.69;;;23.26;43.73
55317;BME280;41178;48.956;8.130;2022-07-06T05:58:20;100362.38;;;22.90;43.98
55317;BME280;41178;48.956;8.130;2022-07-06T06:00:23;100366.75;;;23.09;44.48
55317;BME280;41178;48.956;8.130;2022-07-06T06:02:25;100370.03;;;22.74;44.48
55317;BME280;41178;48.956;8.130;2022-07-06T06:04:27;100368.81;;;22.89;43.97
55317;BME280;41178;48.956;8.130;2022-07-06T06:06:29;100359.34;;;23.16;43.90
55317;BME280;41178;48.956;8.130;2022-07-06T06:08:32;100361.97;;;23.23;44.04
55317;BME280;41178;48.956;8.130;2022-07-06T06:10:34;100354.78;;;23.47;43.82
55317;BME280;41178;48.956;8.130;2022-07-06T06:12:36;100362.88;;;22.61;45.41
55317;BME280;41178;48.956;8.130;2022-07-06T06:14:38;100368.81;;;21.95;46.42
55317;BME280;41178;48.956;8.130;2022-07-06T06:16:40;100355.84;;;22.54;45.79
55317;BME280;41178;48.956;8.130;2022-07-06T06:18:42;100355.56;;;22.62;45.13
55317;BME280;41178;48.956;8.130;2022-07-06T06:20:43;100355.41;;;22.75;45.27
55317;BME280;41178;48.956;8.130;2022-07-06T06:22:58;100351.28;;;22.73;45.17
55317;BME280;41178;48.956;8.130;2022-07-06T06:25:00;100354.81;;;23.29;44.43
55317;BME280;41178;48.956;8.130;2022-07-06T06:27:02;100357.59;;;22.67;44.79
55317;BME280;41178;48.956;8.130;2022-07-06T06:29:04;100358.69;;;23.51;43.63
55317;BME280;41178;48.956;8.130;2022-07-06T06:31:06;100362.16;;;23.58;43.61
55317;BME280;41178;48.956;8.130;2022-07-06T06:33:15;100371.31;;;23.76;43.13
55317;BME280;41178;48.956;8.130;2022-07-06T06:35:17;100372.09;;;22.97;43.43
55317;BME280;41178;48.956;8.130;2022-07-06T06:37:19;100373.91;;;23.71;42.06
55317;BME280;41178;48.956;8.130;2022-07-06T06:39:21;100383.53;;;22.99;43.30
55317;BME280;41178;48.956;8.130;2022-07-06T06:41:22;100379.97;;;22.37;45.01
55317;BME280;41178;48.956;8.130;2022-07-06T06:43:24;100362.19;;;22.66;43.65
55317;BME280;41178;48.956;8.130;2022-07-06T06:45:26;100370.31;;;22.48;44.15
55317;BME280;41178;48.956;8.130;2022-07-06T06:47:27;100376.22;;;22.81;44.09
55317;BME280;41178;48.956;8.130;2022-07-06T06:49:29;100361.97;;;23.23;43.94
55317;BME280;41178;48.956;8.130;2022-07-06T06:51:31;100376.28;;;22.31;44.36
55317;BME280;41178;48.956;8.130;2022-07-06T06:53:33;100380.97;;;22.17;44.26
55317;BME280;41178;48.956;8.130;2022-07-06T06:55:40;100364.78;;;22.36;45.20
55317;BME280;41178;48.956;8.130;2022-07-06T06:57:42;100361.47;;;22.52;45.07
55317;BME280;41178;48.956;8.130;2022-07-06T06:59:44;100374.53;;;22.12;45.25
55317;BME280;41178;48.956;8.130;2022-07-06T07:01:45;100356.75;;;22.48;45.42
55317;BME280;41178;48.956;8.130;2022-07-06T07:03:56;100339.00;;;23.26;43.69
55317;BME280;41178;48.956;8.130;2022-07-06T07:05:58;100363.84;;;22.17;45.08
55317;BME280;41178;48.956;8.130;2022-07-06T07:07:59;100358.78;;;22.71;44.77
55317;BME280;41178;48.956;8.130;2022-07-06T07:10:06;100374.66;;;22.49;44.49
55317;BME280;41178;48.956;8.130;2022-07-06T07:12:08;100368.00;;;22.70;44.19
55317;BME280;41178;48.956;8.130;2022-07-06T07:14:11;100371.06;;;22.55;44.51
55317;BME280;41178;48.956;8.130;2022-07-06T07:16:13;100370.19;;;22.61;44.66
55317;BME280;41178;48.956;8.130;2022-07-06T07:18:14;100364.53;;;22.81;44.14
55317;BME280;41178;48.956;8.130;2022-07-06T07:20:17;100373.78;;;22.55;44.36
55317;BME280;41178;48.956;8.130;2022-07-06T07:22:18;100366.91;;;22.52;44.22
55317;BME280;41178;48.956;8.130;2022-07-06T07:24:20;100354.81;;;23.29;44.17
55317;BME280;41178;48.956;8.130;2022-07-06T07:26:22;100369.38;;;22.54;44.49
55317;BME280;41178;48.956;8.130;2022-07-06T07:28:23;100362.66;;;22.63;45.25
55317;BME280;41178;48.956;8.130;2022-07-06T07:30:26;100366.56;;;22.67;44.40
55317;BME280;41178;48.956;8.130;2022-07-06T07:32:28;100381.16;;;22.48;44.44
55317;BME280;41178;48.956;8.130;2022-07-06T07:34:29;100370.38;;;22.41;44.25
55317;BME280;41178;48.956;8.130;2022-07-06T07:36:31;100383.53;;;22.05;45.42
55317;BME280;41178;48.956;8.130;2022-07-06T07:38:33;100355.59;;;22.99;43.79
55317;BME280;41178;48.956;8.130;2022-07-06T07:40:34;100360.63;;;22.77;44.72
55317;BME280;41178;48.956;8.130;2022-07-06T07:42:37;100356.53;;;23.23;43.32
55317;BME280;41178;48.956;8.130;2022-07-06T07:44:42;100362.31;;;22.96;44.03
55317;BME280;41178;48.956;8.130;2022-07-06T07:46:43;100373.47;;;23.07;44.37
55317;BME280;41178;48.956;8.130;2022-07-06T07:48:45;100364.09;;;23.51;42.72
55317;BME280;41178;48.956;8.130;2022-07-06T07:50:47;100372.53;;;23.13;42.39
55317;BME280;41178;48.956;8.130;2022-07-06T07:52:49;100371.78;;;23.06;43.37
55317;BME280;41178;48.956;8.130;2022-07-06T07:54:51;100363.22;;;23.57;42.79
55317;BME280;41178;48.956;8.130;2022-07-06T07:57:13;100364.41;;;22.94;43.30
55317;BME280;41178;48.956;8.130;2022-07-06T07:59:15;100349.88;;;23.56;43.58
55317;BME280;41178;48.956;8.130;2022-07-06T08:01:16;100355.22;;;22.95;44.27
55317;BME280;41178;48.956;8.130;2022-07-06T08:03:18;100358.81;;;23.08;44.79
55317;BME280;41178;48.956;8.130;2022-07-06T08:05:20;100358.91;;;23.01;43.25
55317;BME280;41178;48.956;8.130;2022-07-06T08:07:22;100343.94;;;23.89;42.54
55317;BME280;41178;48.956;8.130;2022-07-06T08:09:24;100359.63;;;23.75;42.64
55317;BME280;41178;48.956;8.130;2022-07-06T08:11:25;100353.94;;;24.31;41.33
55317;BME280;41178;48.956;8.130;2022-07-06T08:13:27;100366.75;;;23.09;42.83
55317;BME280;41178;48.956;8.130;2022-07-06T08:15:28;100370.53;;;23.08;43.66
55317;BME280;41178;48.956;8.130;2022-07-06T08:17:30;100358.25;;;23.36;43.81
55317;BME280;41178;48.956;8.130;2022-07-06T08:19:32;100352.38;;;23.57;42.73
55317;BME280;41178;48.956;8.130;2022-07-06T08:21:34;100349.16;;;23.30;43.83
55317;BME280;41178;48.956;8.130;2022-07-06T08:23:35;100348.13;;;23.62;42.63
55317;BME280;41178;48.956;8.130;2022-07-06T08:25:37;100347.91;;;23.75;43.12
55317;BME280;41178;48.956;8.130;2022-07-06T08:27:39;100342.28;;;23.88;42.38
55317;BME280;41178;48.956;8.130;2022-07-06T08:29:42;100354.91;;;23.22;42.91
55317;BME280;41178;48.956;8.130;2022-07-06T08:31:44;100351.72;;;23.74;42.84
55317;BME280;41178;48.956;8.130;2022-07-06T08:33:56;100342.00;;;24.44;41.20
55317;BME280;41178;48.956;8.130;2022-07-06T08:35:59;100349.44;;;24.60;41.23
55317;BME280;41178;48.956;8.130;2022-07-06T08:38:00;100369.06;;;24.27;41.01
55317;BME280;41178;48.956;8.130;2022-07-06T08:40:03;100365.69;;;23.89;42.77
55317;BME280;41178;48.956;8.130;2022-07-06T08:42:07;100365.13;;;23.38;42.58
55317;BME280;41178;48.956;8.130;2022-07-06T08:44:09;100363.81;;;23.60;42.00
55317;BME280;41178;48.956;8.130;2022-07-06T08:46:13;100355.44;;;24.15;41.85
55317;BME280;41178;48.956;8.130;2022-07-06T08:48:16;100368.22;;;23.72;43.25
55317;BME280;41178;48.956;8.130;2022-07-06T08:50:19;100366.75;;;23.58;42.35
55317;BME280;41178;48.956;8.130;2022-07-06T08:52:25;100360.00;;;23.79;42.42
55317;BME280;41178;48.956;8.130;2022-07-06T08:54:27;100361.38;;;24.36;40.99
55317;BME280;41178;48.956;8.130;2022-07-06T08:56:30;100380.19;;;23.34;42.35
55317;BME280;41178;48.956;8.130;2022-07-06T08:58:32;100376.63;;;23.52;42.17
55317;BME280;41178;48.956;8.130;2022-07-06T09:00:34;100362.97;;;24.01;42.06
55317;BME280;41178;48.956;8.130;2022-07-06T09:02:37;100356.47;;;24.14;41.79
55317;BME280;41178;48.956;8.130;2022-07-06T09:04:42;100349.22;;;24.26;42.02
55317;BME280;41178;48.956;8.130;2022-07-06T09:06:46;100354.69;;;23.84;43.29
55317;BME280;41178;48.956;8.130;2022-07-06T09:08:50;100364.41;;;23.62;42.54
55317;BME280;41178;48.956;8.130;2022-07-06T09:10:54;100365.16;;;23.69;42.58
55317;BME280;41178;48.956;8.130;2022-07-06T09:13:08;100362.31;;;23.45;42.76
55317;BME280;41178;48.956;8.130;2022-07-06T09:15:10;100368.34;;;23.47;42.42
55317;BME280;41178;48.956;8.130;2022-07-06T09:17:12;100349.56;;;24.65;41.22
55317;BME280;41178;48.956;8.130;2022-07-06T09:19:17;100360.53;;;24.71;42.46
55317;BME280;41178;48.956;8.130;2022-07-06T09:21:27;100348.56;;;25.07;41.77
55317;BME280;41178;48.956;8.130;2022-07-06T09:23:32;100353.63;;;25.03;41.86
55317;BME280;41178;48.956;8.130;2022-07-06T09:25:35;100361.50;;;24.41;42.22
55317;BME280;41178;48.956;8.130;2022-07-06T09:27:38;100362.06;;;24.90;41.60
55317;BME280;41178;48.956;8.130;2022-07-06T09:29:41;100366.91;;;24.64;41.29
55317;BME280;41178;48.956;8.130;2022-07-06T09:31:45;100368.38;;;24.31;42.22
55317;BME280;41178;48.956;8.130;2022-07-06T09:33:57;100364.72;;;25.14;41.09
55317;BME280;41178;48.956;8.130;2022-07-06T09:35:59;100376.16;;;24.40;41.65
55317;BME280;41178;48.956;8.130;2022-07-06T09:38:14;100366.44;;;24.67;41.66
55317;BME280;41178;48.956;8.130;2022-07-06T09:40:19;100376.50;;;24.67;41.71
55317;BME280;41178;48.956;8.130;2022-07-06T09:42:25;100357.72;;;25.58;41.89
55317;BME280;41178;48.956;8.130;2022-07-06T09:44:29;100359.72;;;25.34;40.76
55317;BME280;41178;48.956;8.130;2022-07-06T09:46:39;100368.22;;;24.97;41.26
55317;BME280;41178;48.956;8.130;2022-07-06T09:48:42;100383.81;;;24.55;41.29
55317;BME280;41178;48.956;8.130;2022-07-06T09:50:57;100364.69;;;24.26;42.00
55317;BME280;41178;48.956;8.130;2022-07-06T09:53:00;100374.50;;;24.27;41.80
55317;BME280;41178;48.956;8.130;2022-07-06T09:55:06;100367.09;;;24.04;42.64
55317;BME280;41178;48.956;8.130;2022-07-06T09:57:07;100375.22;;;23.92;42.51
55317;BME280;41178;48.956;8.130;2022-07-06T10:01:25;100348.97;;;24.87;41.09
55317;BME280;41178;48.956;8.130;2022-07-06T10:03:27;100366.66;;;25.42;41.03
55317;BME280;41178;48.956;8.130;2022-07-06T10:05:29;100360.13;;;25.55;39.98
55317;BME280;41178;48.956;8.130;2022-07-06T10:07:32;100371.78;;;24.86;41.45
55317;BME280;41178;48.956;8.130;2022-07-06T10:09:34;100376.03;;;24.94;41.29
55317;BME280;41178;48.956;8.130;2022-07-06T10:11:40;100363.13;;;25.41;40.88
55317;BME280;41178;48.956;8.130;2022-07-06T10:13:44;100373.91;;;24.60;41.74
55317;BME280;41178;48.956;8.130;2022-07-06T10:15:47;100375.13;;;25.17;41.08
55317;BME280;41178;48.956;8.130;2022-07-06T10:17:50;100370.41;;;25.82;40.29
55317;BME280;41178;48.956;8.130;2022-07-06T10:19:52;100385.28;;;25.62;39.82
55317;BME280;41178;48.956;8.130;2022-07-06T10:22:01;100384.72;;;25.60;40.54
55317;BME280;41178;48.956;8.130;2022-07-06T10:24:05;100392.16;;;25.36;40.50
55317;BME280;41178;48.956;8.130;2022-07-06T10:26:08;100380.13;;;25.08;41.07
55317;BME280;41178;48.956;8.130;2022-07-06T10:28:14;100381.91;;;25.14;41.05
55317;BME280;41178;48.956;8.130;2022-07-06T10:30:16;100384.84;;;25.13;41.09
55317;BME280;41178;48.956;8.130;2022-07-06T10:32:22;100374.88;;;25.59;40.51
55317;BME280;41178;48.956;8.130;2022-07-06T10:34:24;100377.56;;;24.90;41.14
55317;BME280;41178;48.956;8.130;2022-07-06T10:36:27;100380.50;;;24.17;41.19
55317;BME280;41178;48.956;8.130;2022-07-06T10:38:34;100370.16;;;25.14;40.99
55317;BME280;41178;48.956;8.130;2022-07-06T10:40:40;100368.38;;;25.60;40.24
55317;BME280;41178;48.956;8.130;2022-07-06T10:43:02;100363.63;;;25.84;40.37
55317;BME280;41178;48.956;8.130;2022-07-06T10:45:04;100371.53;;;24.88;41.14